createdAt,value
2022-08-16T00:01:55.768Z,3.20
2022-08-16T00:04:23.541Z,2.93
2022-08-16T00:06:55.822Z,3.37
2022-08-16T00:09:23.788Z,3.70
2022-08-16T00:11:52.685Z,3.03
2022-08-16T00:14:29.214Z,3.33
2022-08-16T00:17:15.991Z,3.27
2022-08-16T00:19:46.199Z,3.13
2022-08-16T00:22:15.604Z,3.40
2022-08-16T00:24:44.715Z,3.53
2022-08-16T00:27:15.413Z,4.03
2022-08-16T00:29:45.922Z,3.50
2022-08-16T00:32:18.184Z,4.20
2022-08-16T00:34:52.716Z,3.50
2022-08-16T00:37:24.531Z,3.57
2022-08-16T00:39:57.631Z,3.93
2022-08-16T00:42:30.173Z,3.40
2022-08-16T00:45:08.040Z,3.93
2022-08-16T00:47:42.614Z,4.07
2022-08-16T00:50:20.689Z,3.90
2022-08-16T00:52:51.301Z,4.50
2022-08-16T00:55:22.168Z,3.43
2022-08-16T00:57:58.512Z,3.40
2022-08-16T01:00:31.284Z,4.00
2022-08-16T01:03:03.454Z,4.07
2022-08-16T01:05:32.834Z,3.87
2022-08-16T01:08:02.937Z,4.00
2022-08-16T01:10:53.012Z,4.00
2022-08-16T01:13:26.820Z,3.93
2022-08-16T01:16:01.001Z,4.17
2022-08-16T01:18:40.013Z,4.10
2022-08-16T01:21:22.185Z,4.23
2022-08-16T01:24:53.678Z,3.73
2022-08-16T01:27:03.876Z,3.97
2022-08-16T01:29:56.935Z,4.10
2022-08-16T01:32:33.624Z,3.80
2022-08-16T01:35:05.607Z,3.87
2022-08-16T01:37:42.369Z,4.07
2022-08-16T01:40:13.230Z,4.73
2022-08-16T01:42:44.042Z,4.10
2022-08-16T01:45:15.941Z,4.27
2022-08-16T01:47:50.943Z,3.90
2022-08-16T01:50:42.455Z,4.70
2022-08-16T01:53:10.144Z,3.90
2022-08-16T01:55:41.457Z,3.80
2022-08-16T01:58:12.220Z,4.33
2022-08-16T02:00:40.144Z,4.30
2022-08-16T02:03:08.101Z,3.90
2022-08-16T02:05:42.115Z,4.30
2022-08-16T02:08:33.857Z,4.40
2022-08-16T02:11:06.513Z,4.40
2022-08-16T02:13:35.319Z,4.67
2022-08-16T02:16:03.529Z,4.67
2022-08-16T02:18:31.355Z,4.10
2022-08-16T02:21:01.711Z,4.27
2022-08-16T02:23:32.845Z,4.57
2022-08-16T02:26:01.251Z,4.83
2022-08-16T02:28:31.568Z,4.67
2022-08-16T02:31:03.252Z,4.23
2022-08-16T02:33:43.649Z,4.50
2022-08-16T02:36:42.250Z,4.60
2022-08-16T02:39:02.888Z,4.80
2022-08-16T02:41:31.013Z,3.97
2022-08-16T02:44:00.188Z,4.60
2022-08-16T02:46:30.142Z,4.73
2022-08-16T02:49:02.167Z,4.27
2022-08-16T02:51:29.922Z,4.73
2022-08-16T02:53:59.629Z,5.00
2022-08-16T02:56:32.360Z,5.30
2022-08-16T02:59:01.595Z,4.63
2022-08-16T03:01:33.672Z,4.80
2022-08-16T03:04:40.040Z,5.30
2022-08-16T03:06:56.337Z,4.13
2022-08-16T03:09:25.508Z,4.33
2022-08-16T03:11:57.029Z,4.90
2022-08-16T03:14:26.565Z,5.17
2022-08-16T03:16:59.343Z,5.10
2022-08-16T03:19:46.848Z,4.73
2022-08-16T03:22:19.471Z,5.20
2022-08-16T03:24:57.940Z,4.30
2022-08-16T03:27:30.743Z,5.50
2022-08-16T03:30:01.287Z,5.30
2022-08-16T03:32:29.715Z,5.63
2022-08-16T03:34:57.372Z,5.00
2022-08-16T03:37:25.238Z,4.60
2022-08-16T03:39:56.462Z,4.40
2022-08-16T03:42:29.568Z,4.87
2022-08-16T03:45:03.623Z,4.87
2022-08-16T03:47:34.844Z,5.50
2022-08-16T03:50:03.695Z,5.00
2022-08-16T03:52:51.372Z,4.90
2022-08-16T03:55:28.946Z,4.93
2022-08-16T03:58:10.747Z,5.47
2022-08-16T04:00:41.350Z,5.83
2022-08-16T04:03:10.668Z,5.73
2022-08-16T04:05:40.921Z,6.00
2022-08-16T04:08:23.131Z,5.90
2022-08-16T04:10:55.007Z,5.57
2022-08-16T04:14:00.996Z,6.70
2022-08-16T04:16:26.098Z,5.63
2022-08-16T04:19:01.388Z,5.80
2022-08-16T04:21:30.983Z,6.40
2022-08-16T04:24:00.158Z,6.30
2022-08-16T04:26:30.846Z,6.00
2022-08-16T04:29:16.728Z,6.40
2022-08-16T04:31:56.714Z,6.37
2022-08-16T04:34:29.393Z,5.67
2022-08-16T04:36:58.890Z,5.80
2022-08-16T04:39:36.615Z,5.57
2022-08-16T04:42:13.450Z,6.50
2022-08-16T04:44:53.959Z,7.13
2022-08-16T04:47:25.148Z,6.10
2022-08-16T04:50:00.875Z,6.27
2022-08-16T04:52:33.960Z,6.20
2022-08-16T04:55:06.032Z,7.03
2022-08-16T04:57:33.991Z,6.30
2022-08-16T05:00:30.869Z,5.70
2022-08-16T05:02:54.913Z,5.50
2022-08-16T05:05:25.455Z,6.03
2022-08-16T05:08:00.707Z,5.67
2022-08-16T05:10:48.371Z,6.23
2022-08-16T05:13:18.188Z,6.33
2022-08-16T05:15:47.041Z,5.90
2022-08-16T05:18:21.974Z,6.40
2022-08-16T05:21:01.718Z,6.50
2022-08-16T05:23:37.524Z,6.57
2022-08-16T05:26:06.147Z,6.97
2022-08-16T05:28:47.470Z,6.90
2022-08-16T05:31:23.711Z,6.90
2022-08-16T05:33:57.204Z,7.10
2022-08-16T05:36:34.325Z,7.20
2022-08-16T05:39:08.785Z,7.47
2022-08-16T05:41:45.339Z,7.90
2022-08-16T05:44:24.214Z,6.80
2022-08-16T05:46:54.929Z,6.83
2022-08-16T05:49:23.378Z,7.37
2022-08-16T05:51:52.933Z,6.23
2022-08-16T05:54:25.199Z,6.57
2022-08-16T05:56:55.719Z,6.00
2022-08-16T05:59:27.004Z,6.57
2022-08-16T06:01:56.124Z,7.00
2022-08-16T06:04:34.941Z,5.97
2022-08-16T06:07:08.991Z,4.77
2022-08-16T06:09:52.545Z,5.90
2022-08-16T06:12:26.744Z,4.90
2022-08-16T06:14:59.159Z,5.13
2022-08-16T06:17:28.132Z,5.17
2022-08-16T06:20:14.655Z,5.50
2022-08-16T06:23:02.767Z,4.90
2022-08-16T06:25:36.771Z,5.00
2022-08-16T06:28:09.412Z,4.43
2022-08-16T06:30:43.245Z,5.27
2022-08-16T06:33:12.772Z,4.90
2022-08-16T06:35:41.680Z,5.10
2022-08-16T06:38:32.153Z,4.27
2022-08-16T06:40:58.918Z,5.00
2022-08-16T06:43:27.289Z,4.93
2022-08-16T06:45:55.927Z,4.33
2022-08-16T06:48:32.616Z,3.78
2022-08-16T06:51:06.273Z,4.50
2022-08-16T06:53:36.638Z,3.60
2022-08-16T06:56:14.416Z,4.72
2022-08-16T06:58:47.558Z,5.13
2022-08-16T07:01:15.726Z,4.32
2022-08-16T07:03:55.756Z,4.60
2022-08-16T07:06:26.812Z,4.40
2022-08-16T07:09:10.102Z,4.03
2022-08-16T07:11:47.193Z,4.38
2022-08-16T07:14:24.543Z,4.30
2022-08-16T07:16:55.286Z,3.30
2022-08-16T07:19:22.947Z,3.88
2022-08-16T07:22:37.156Z,4.28
2022-08-16T07:24:59.719Z,4.50
2022-08-16T07:27:28.394Z,3.97
2022-08-16T07:29:59.784Z,4.13
2022-08-16T07:32:29.534Z,4.47
2022-08-16T07:34:59.751Z,4.32
2022-08-16T07:37:27.503Z,4.40
2022-08-16T07:39:57.243Z,4.22
2022-08-16T07:42:34.814Z,4.55
2022-08-16T07:45:03.322Z,3.38
2022-08-16T07:47:35.647Z,4.40
2022-08-16T07:50:07.849Z,4.45
2022-08-16T07:52:39.692Z,3.85
2022-08-16T07:55:09.179Z,3.75
2022-08-16T07:57:58.149Z,3.83
2022-08-16T08:00:26.746Z,3.97
2022-08-16T08:02:55.492Z,3.80
2022-08-16T08:05:35.740Z,3.78
2022-08-16T08:08:11.783Z,3.90
2022-08-16T08:10:53.257Z,3.67
2022-08-16T08:13:41.809Z,4.25
2022-08-16T08:16:16.914Z,4.32
2022-08-16T08:18:49.827Z,3.80
2022-08-16T08:21:27.535Z,4.35
2022-08-16T08:24:09.280Z,3.22
2022-08-16T08:26:37.794Z,3.75
2022-08-16T08:29:12.124Z,4.25
2022-08-16T08:31:42.348Z,3.78
2022-08-16T08:34:12.624Z,3.78
2022-08-16T08:36:40.771Z,3.05
2022-08-16T08:39:12.620Z,4.00
2022-08-16T08:41:41.586Z,3.47
2022-08-16T08:44:28.468Z,3.35
2022-08-16T08:47:00.036Z,2.83
2022-08-16T08:49:46.814Z,3.20
2022-08-16T08:52:34.827Z,3.20
2022-08-16T08:55:10.478Z,3.00
2022-08-16T08:57:38.619Z,3.60
2022-08-16T09:00:13.482Z,2.97
2022-08-16T09:02:44.498Z,2.90
2022-08-16T09:05:15.576Z,3.83
2022-08-16T09:08:00.678Z,3.53
2022-08-16T09:10:30.538Z,3.10
2022-08-16T09:12:58.655Z,5.10
2022-08-16T09:15:33.029Z,4.10
2022-08-16T09:18:25.322Z,5.17
2022-08-16T09:20:58.627Z,4.57
2022-08-16T09:23:29.413Z,4.17
2022-08-16T09:25:57.242Z,4.10
2022-08-16T09:29:13.541Z,4.10
2022-08-16T09:31:18.065Z,4.40
2022-08-16T09:33:52.124Z,4.47
2022-08-16T09:36:31.807Z,4.73
2022-08-16T09:39:02.119Z,3.83
2022-08-16T09:41:31.797Z,4.60
2022-08-16T09:44:02.653Z,3.60
2022-08-16T09:46:50.006Z,4.17
2022-08-16T09:49:19.875Z,3.90
2022-08-16T09:51:54.830Z,4.03
2022-08-16T09:54:25.006Z,12.50
2022-08-16T09:57:00.542Z,6.20
2022-08-16T09:59:45.935Z,5.00
2022-08-16T10:02:26.791Z,4.70
2022-08-16T10:04:57.349Z,4.00
2022-08-16T10:07:26.189Z,4.27
2022-08-16T10:10:12.014Z,4.20
2022-08-16T10:12:58.685Z,4.43
2022-08-16T10:15:30.262Z,4.10
2022-08-16T10:18:02.479Z,4.10
2022-08-16T10:20:49.792Z,3.67
2022-08-16T10:23:17.870Z,4.27
2022-08-16T10:27:17.131Z,4.47
2022-08-16T10:28:39.542Z,4.03
2022-08-16T10:31:11.712Z,4.93
2022-08-16T10:33:43.978Z,4.13
2022-08-16T10:36:39.057Z,4.87
2022-08-16T10:39:01.209Z,4.33
2022-08-16T10:41:29.958Z,4.43
2022-08-16T10:43:58.364Z,4.27
2022-08-16T10:46:39.842Z,4.17
2022-08-16T10:49:12.672Z,5.10
2022-08-16T10:52:01.953Z,7.40
2022-08-16T10:54:34.160Z,15.43
2022-08-16T10:57:24.467Z,4.20
2022-08-16T10:59:57.763Z,3.90
2022-08-16T11:02:58.725Z,4.07
2022-08-16T11:05:18.051Z,4.23
2022-08-16T11:07:52.186Z,4.57
2022-08-16T11:19:03.980Z,4.37
2022-08-16T11:21:36.877Z,3.93
2022-08-16T11:24:39.310Z,5.37
2022-08-16T11:29:40.911Z,3.63
2022-08-16T11:32:08.658Z,3.40
2022-08-16T11:35:05.899Z,3.77
2022-08-16T11:37:34.178Z,3.90
2022-08-16T11:40:15.980Z,3.20
2022-08-16T11:42:47.405Z,3.70
2022-08-16T11:45:15.423Z,3.83
2022-08-16T11:47:43.100Z,4.00
2022-08-16T11:50:12.100Z,3.50
2022-08-16T11:52:41.192Z,3.63
2022-08-16T11:55:14.929Z,3.77
2022-08-16T11:57:42.612Z,3.77
2022-08-16T12:00:33.819Z,3.80
2022-08-16T12:03:01.809Z,3.07
2022-08-16T12:05:31.017Z,3.37
2022-08-16T12:08:01.326Z,3.27
2022-08-16T12:10:33.953Z,3.60
2022-08-16T12:13:02.708Z,3.73
2022-08-16T12:15:30.998Z,3.23
2022-08-16T12:17:59.126Z,3.67
2022-08-16T12:20:29.816Z,2.70
2022-08-16T12:22:58.119Z,3.20
2022-08-16T12:25:30.123Z,3.40
2022-08-16T12:27:58.172Z,3.57
2022-08-16T12:30:38.585Z,3.23
2022-08-16T12:33:09.093Z,2.77
2022-08-16T12:35:39.098Z,3.17
2022-08-16T12:38:41.479Z,2.83
2022-08-16T12:40:58.927Z,3.07
2022-08-16T12:43:27.070Z,3.07
2022-08-16T12:46:02.142Z,2.83
2022-08-16T12:48:50.256Z,3.07
2022-08-16T12:51:24.118Z,2.87
2022-08-16T12:53:54.492Z,2.90
2022-08-16T12:56:26.566Z,2.77
2022-08-16T12:58:56.006Z,2.67
2022-08-16T13:01:31.193Z,2.90
2022-08-16T13:04:11.879Z,2.87
2022-08-16T13:06:50.118Z,2.70
2022-08-16T13:09:21.786Z,2.97
2022-08-16T13:12:04.189Z,2.60
2022-08-16T13:14:37.802Z,2.70
2022-08-16T13:17:08.181Z,2.57
2022-08-16T13:20:06.683Z,2.53
2022-08-16T13:22:25.505Z,3.20
2022-08-16T13:24:53.898Z,2.60
2022-08-16T13:28:15.033Z,2.83
2022-08-16T13:30:36.205Z,3.00
2022-08-16T13:33:00.547Z,2.60
2022-08-16T13:35:32.986Z,2.60
2022-08-16T13:38:02.488Z,2.33
2022-08-16T13:40:31.311Z,2.50
2022-08-16T13:43:01.049Z,2.40
2022-08-16T13:45:36.105Z,2.33
2022-08-16T13:48:05.389Z,2.40
2022-08-16T13:50:51.476Z,2.90
2022-08-16T13:53:24.604Z,2.70
2022-08-16T13:55:57.737Z,2.17
2022-08-16T13:58:36.635Z,2.60
2022-08-16T14:01:09.763Z,2.10
2022-08-16T14:03:38.849Z,2.50
2022-08-16T14:06:07.743Z,2.00
2022-08-16T14:08:42.129Z,2.20
2022-08-16T14:11:11.864Z,1.80
2022-08-16T14:13:42.050Z,2.77
2022-08-16T14:16:23.333Z,2.10
2022-08-16T14:18:52.745Z,2.10
2022-08-16T14:21:22.153Z,1.90
2022-08-16T14:23:52.426Z,1.63
2022-08-16T14:26:21.273Z,2.20
2022-08-16T14:28:52.463Z,2.40
2022-08-16T14:31:23.036Z,2.07
2022-08-16T14:33:52.667Z,2.07
2022-08-16T14:36:29.922Z,2.93
2022-08-16T14:38:58.336Z,2.30
2022-08-16T14:41:26.097Z,2.27
2022-08-16T14:43:55.617Z,2.43
2022-08-16T14:46:23.497Z,2.20
2022-08-16T14:48:52.200Z,2.20
2022-08-16T14:51:21.101Z,1.87
2022-08-16T14:53:52.210Z,2.10
2022-08-16T14:56:38.173Z,2.37
2022-08-16T14:59:09.723Z,2.50
2022-08-16T15:01:57.707Z,2.07
2022-08-16T15:04:36.891Z,2.03
2022-08-16T15:07:10.864Z,2.00
2022-08-16T15:09:44.895Z,2.00
2022-08-16T15:12:31.066Z,2.43
2022-08-16T15:15:12.710Z,1.80
2022-08-16T15:17:54.579Z,2.30
2022-08-16T15:20:29.309Z,1.83
2022-08-16T15:22:59.935Z,2.30
2022-08-16T15:25:31.768Z,2.17
2022-08-16T15:28:02.401Z,2.10
2022-08-16T15:30:58.061Z,2.10
2022-08-16T15:33:25.794Z,2.27
2022-08-16T15:35:57.905Z,1.97
2022-08-16T15:38:55.267Z,1.97
2022-08-16T15:41:34.009Z,2.00
2022-08-16T15:44:05.131Z,2.00
2022-08-16T15:46:55.398Z,1.87
2022-08-16T15:49:37.761Z,2.00
2022-08-16T15:52:20.536Z,2.20
2022-08-16T15:54:53.205Z,1.80
2022-08-16T15:57:23.961Z,2.30
2022-08-16T15:59:52.985Z,2.20
2022-08-16T16:02:30.763Z,2.07
2022-08-16T16:05:01.853Z,2.10
2022-08-16T16:07:31.988Z,2.10
2022-08-16T16:10:01.342Z,1.90
2022-08-16T16:12:50.990Z,2.20
2022-08-16T16:15:20.148Z,2.03
2022-08-16T16:17:52.802Z,1.80
2022-08-16T16:20:22.070Z,2.27
2022-08-16T16:22:56.772Z,1.70
2022-08-16T16:25:26.078Z,2.13
2022-08-16T16:27:55.726Z,1.90
2022-08-16T16:30:37.838Z,2.10
2022-08-16T16:33:21.310Z,2.50
2022-08-16T16:35:56.691Z,2.20
2022-08-16T16:38:28.805Z,2.37
2022-08-16T16:40:57.709Z,2.10
2022-08-16T16:43:31.558Z,1.63
2022-08-16T16:46:01.706Z,2.40
2022-08-16T16:48:34.905Z,1.90
2022-08-16T16:51:09.574Z,1.80
2022-08-16T16:53:40.984Z,2.07
2022-08-16T16:56:19.615Z,1.80
2022-08-16T16:59:00.982Z,1.93
2022-08-16T17:02:00.060Z,2.00
2022-08-16T17:04:31.817Z,2.10
2022-08-16T17:07:01.576Z,2.13
2022-08-16T17:09:30.678Z,1.83
2022-08-16T17:11:59.278Z,2.00
2022-08-16T17:14:33.196Z,1.87
2022-08-16T17:17:01.725Z,1.83
2022-08-16T17:19:32.096Z,2.10
2022-08-16T17:22:00.037Z,1.83
2022-08-16T17:24:31.951Z,1.90
2022-08-16T17:27:08.471Z,1.97
2022-08-16T17:29:42.901Z,1.80
2022-08-16T17:32:33.694Z,2.00
2022-08-16T17:35:10.290Z,1.70
2022-08-16T17:37:49.729Z,1.50
2022-08-16T17:40:25.665Z,1.80
2022-08-16T17:43:09.460Z,2.13
2022-08-16T17:45:38.208Z,2.50
2022-08-16T17:48:06.429Z,2.37
2022-08-16T17:50:35.848Z,1.90
2022-08-16T17:53:04.054Z,2.40
2022-08-16T17:55:34.424Z,1.90
2022-08-16T17:58:09.738Z,2.23
2022-08-16T18:00:52.029Z,1.80
2022-08-16T18:04:02.923Z,1.90
2022-08-16T18:06:17.646Z,1.90
2022-08-16T18:08:48.350Z,1.90
2022-08-16T18:11:18.848Z,2.20
2022-08-16T18:13:47.692Z,2.30
2022-08-16T18:16:16.681Z,2.53
2022-08-16T18:18:46.853Z,2.30
2022-08-16T18:21:34.099Z,2.40
2022-08-16T18:24:02.093Z,2.63
2022-08-16T18:26:30.159Z,2.60
2022-08-16T18:28:57.913Z,2.40
2022-08-16T18:31:25.958Z,2.20
2022-08-16T18:33:55.740Z,2.40
2022-08-16T18:36:26.323Z,2.17
2022-08-16T18:38:55.343Z,2.40
2022-08-16T18:41:25.316Z,2.70
2022-08-16T18:44:23.119Z,2.27
2022-08-16T18:46:43.946Z,2.60
2022-08-16T18:49:14.103Z,2.10
2022-08-16T18:51:47.252Z,1.93
2022-08-16T18:54:17.849Z,2.77
2022-08-16T18:56:56.207Z,2.30
2022-08-16T18:59:27.062Z,2.43
2022-08-16T19:01:59.781Z,2.60
2022-08-16T19:04:55.273Z,3.00
2022-08-16T19:07:21.475Z,2.80
2022-08-16T19:09:49.251Z,2.60
2022-08-16T19:12:17.076Z,2.63
2022-08-16T19:15:07.762Z,3.23
2022-08-16T19:17:39.552Z,2.83
2022-08-16T19:20:10.869Z,3.27
2022-08-16T19:25:46.274Z,3.10
2022-08-16T19:28:49.496Z,3.70
2022-08-16T19:31:09.507Z,3.20
2022-08-16T19:33:37.256Z,2.93
2022-08-16T19:36:05.701Z,3.10
2022-08-16T19:38:35.311Z,3.10
2022-08-16T19:41:03.184Z,3.20
2022-08-16T19:43:31.428Z,3.70
2022-08-16T19:45:59.140Z,3.60
2022-08-16T19:48:26.877Z,3.20
2022-08-16T19:50:54.642Z,3.50
2022-08-16T19:53:22.338Z,3.90
2022-08-16T19:55:51.329Z,3.43
2022-08-16T19:58:19.855Z,4.17
2022-08-16T20:00:52.241Z,5.40
2022-08-16T20:03:24.718Z,4.67
2022-08-16T20:05:53.187Z,5.13
2022-08-16T20:08:22.177Z,4.97
2022-08-16T20:10:51.536Z,4.40
2022-08-16T20:13:21.206Z,3.87
2022-08-16T20:15:50.316Z,4.00
2022-08-16T20:18:25.080Z,3.83
2022-08-16T20:20:55.688Z,4.20
2022-08-16T20:23:25.504Z,4.40
2022-08-16T20:25:56.443Z,4.67
2022-08-16T20:28:39.743Z,4.20
2022-08-16T20:31:12.730Z,4.13
2022-08-16T20:33:40.561Z,4.17
2022-08-16T20:36:08.982Z,4.10
2022-08-16T20:38:45.908Z,4.30
2022-08-16T20:41:15.506Z,4.20
2022-08-16T20:43:43.417Z,4.33
2022-08-16T20:46:11.216Z,3.53
2022-08-16T20:48:38.860Z,4.70
2022-08-16T20:51:10.427Z,4.40
2022-08-16T20:53:38.513Z,4.83
2022-08-16T20:56:06.956Z,4.77
2022-08-16T20:58:36.044Z,4.70
2022-08-16T21:01:05.193Z,4.33
2022-08-16T21:03:33.173Z,4.80
2022-08-16T21:06:02.441Z,4.67
2022-08-16T21:08:51.915Z,4.77
2022-08-16T21:11:18.435Z,4.40
2022-08-16T21:13:47.532Z,5.00
2022-08-16T21:16:16.896Z,4.93
2022-08-16T21:18:44.706Z,4.87
2022-08-16T21:21:12.649Z,4.90
2022-08-16T21:23:40.668Z,5.77
2022-08-16T21:26:11.148Z,5.00
2022-08-16T21:28:43.245Z,4.23
2022-08-16T21:31:15.066Z,4.30
2022-08-16T21:33:43.547Z,3.77
2022-08-16T21:36:12.035Z,3.40
2022-08-16T21:38:40.525Z,4.27
2022-08-16T21:41:12.714Z,3.73
2022-08-16T21:43:40.611Z,4.23
2022-08-16T21:46:09.020Z,4.37
2022-08-16T21:48:40.493Z,5.00
2022-08-16T21:51:12.539Z,4.23
2022-08-16T21:53:41.497Z,4.20
2022-08-16T21:56:14.974Z,3.83
2022-08-16T21:58:45.151Z,5.00
2022-08-16T22:01:12.991Z,4.83
2022-08-16T22:03:42.464Z,4.17
2022-08-16T22:06:14.132Z,4.80
2022-08-16T22:08:48.916Z,4.43
2022-08-16T22:11:19.269Z,4.63
2022-08-16T22:13:58.340Z,4.80
2022-08-16T22:16:29.019Z,4.40
2022-08-16T22:18:58.037Z,4.30
2022-08-16T22:21:26.090Z,4.50
2022-08-16T22:23:56.498Z,4.80
2022-08-16T22:26:30.229Z,4.90
2022-08-16T22:28:59.699Z,4.70
2022-08-16T22:31:27.556Z,5.93
2022-08-16T22:33:56.553Z,5.50
2022-08-16T22:36:28.425Z,4.70
2022-08-16T22:38:58.865Z,4.83
2022-08-16T22:41:27.363Z,4.90
2022-08-16T22:43:54.984Z,5.13
2022-08-16T22:46:22.583Z,4.50
2022-08-16T22:48:51.023Z,4.70
2022-08-16T22:51:19.359Z,5.20
2022-08-16T22:53:48.899Z,4.90
2022-08-16T22:56:17.479Z,5.20
2022-08-16T22:58:45.321Z,5.30
2022-08-16T23:01:14.511Z,4.77
2022-08-16T23:03:43.130Z,4.80
2022-08-16T23:06:12.273Z,5.10
2022-08-16T23:08:42.144Z,4.30
2022-08-16T23:11:13.172Z,4.70
2022-08-16T23:13:52.819Z,4.70
2022-08-16T23:16:24.854Z,4.57
2022-08-16T23:18:58.567Z,4.50
2022-08-16T23:21:27.452Z,5.03
2022-08-16T23:23:55.036Z,4.57
2022-08-16T23:26:44.976Z,4.50
2022-08-16T23:29:15.643Z,5.67
2022-08-16T23:31:53.273Z,5.20
2022-08-16T23:34:21.513Z,5.40
2022-08-16T23:36:49.158Z,4.60
2022-08-16T23:39:16.883Z,5.20
2022-08-16T23:41:45.820Z,4.30
2022-08-16T23:44:56.047Z,4.07
2022-08-16T23:47:01.117Z,4.80
2022-08-16T23:49:59.358Z,4.77
2022-08-16T23:52:16.522Z,4.03
2022-08-16T23:54:44.179Z,4.40
2022-08-16T23:57:13.119Z,5.13
2022-08-16T23:59:48.622Z,4.07
